sensor_id;sensor_type;location;lat;lon;timestamp;P1;durP1;ratioP1;P2;durP2;ratioP2
65461;SDS011;53236;43.666;18.444;2023-07-13T00:00:27;5.75;;;4.00;;
65461;SDS011;53236;43.666;18.444;2023-07-13T00:02:54;10.77;;;4.50;;
65461;SDS011;53236;43.666;18.444;2023-07-13T00:05:20;5.50;;;3.90;;
65461;SDS011;53236;43.666;18.444;2023-07-13T00:07:47;6.53;;;4.23;;
65461;SDS011;53236;43.666;18.444;2023-07-13T00:10:13;8.87;;;4.50;;
65461;SDS011;53236;43.666;18.444;2023-07-13T00:12:39;10.00;;;4.50;;
65461;SDS011;53236;43.666;18.444;2023-07-13T00:15:07;6.27;;;3.73;;
65461;SDS011;53236;43.666;18.444;2023-07-13T00:17:41;6.82;;;4.07;;
65461;SDS011;53236;43.666;18.444;2023-07-13T00:20:10;8.20;;;4.43;;
65461;SDS011;53236;43.666;18.444;2023-07-13T00:22:36;11.57;;;4.30;;
65461;SDS011;53236;43.666;18.444;2023-07-13T00:25:02;6.93;;;4.43;;
65461;SDS011;53236;43.666;18.444;2023-07-13T00:27:28;8.30;;;4.50;;
65461;SDS011;53236;43.666;18.444;2023-07-13T00:29:57;8.87;;;4.60;;
65461;SDS011;53236;43.666;18.444;2023-07-13T00:32:24;8.43;;;4.40;;
65461;SDS011;53236;43.666;18.444;2023-07-13T00:34:54;11.00;;;4.27;;
65461;SDS011;53236;43.666;18.444;2023-07-13T00:37:19;8.30;;;4.43;;
65461;SDS011;53236;43.666;18.444;2023-07-13T00:39:45;7.37;;;4.27;;
65461;SDS011;53236;43.666;18.444;2023-07-13T00:42:11;9.03;;;4.20;;
65461;SDS011;53236;43.666;18.444;2023-07-13T00:44:37;8.43;;;4.70;;
65461;SDS011;53236;43.666;18.444;2023-07-13T00:47:05;7.73;;;4.27;;
65461;SDS011;53236;43.666;18.444;2023-07-13T00:49:31;8.47;;;4.53;;
65461;SDS011;53236;43.666;18.444;2023-07-13T00:52:07;8.03;;;4.60;;
65461;SDS011;53236;43.666;18.444;2023-07-13T00:54:39;8.27;;;4.50;;
65461;SDS011;53236;43.666;18.444;2023-07-13T00:57:11;6.95;;;4.45;;
65461;SDS011;53236;43.666;18.444;2023-07-13T00:59:41;7.87;;;3.97;;
65461;SDS011;53236;43.666;18.444;2023-07-13T01:02:10;7.43;;;4.10;;
65461;SDS011;53236;43.666;18.444;2023-07-13T01:04:36;6.53;;;4.20;;
65461;SDS011;53236;43.666;18.444;2023-07-13T01:07:03;8.03;;;4.53;;
65461;SDS011;53236;43.666;18.444;2023-07-13T01:09:31;6.47;;;4.67;;
65461;SDS011;53236;43.666;18.444;2023-07-13T01:11:57;8.60;;;4.53;;
65461;SDS011;53236;43.666;18.444;2023-07-13T01:14:24;8.33;;;4.63;;
65461;SDS011;53236;43.666;18.444;2023-07-13T01:16:50;7.43;;;4.67;;
65461;SDS011;53236;43.666;18.444;2023-07-13T01:19:29;7.60;;;4.50;;
65461;SDS011;53236;43.666;18.444;2023-07-13T01:22:06;7.30;;;4.23;;
65461;SDS011;53236;43.666;18.444;2023-07-13T01:24:35;7.53;;;4.60;;
65461;SDS011;53236;43.666;18.444;2023-07-13T01:27:01;7.30;;;4.60;;
65461;SDS011;53236;43.666;18.444;2023-07-13T01:29:28;7.07;;;4.17;;
65461;SDS011;53236;43.666;18.444;2023-07-13T01:31:55;10.53;;;5.33;;
65461;SDS011;53236;43.666;18.444;2023-07-13T01:34:20;7.50;;;4.37;;
65461;SDS011;53236;43.666;18.444;2023-07-13T01:36:46;8.63;;;5.33;;
65461;SDS011;53236;43.666;18.444;2023-07-13T01:39:12;11.50;;;4.73;;
65461;SDS011;53236;43.666;18.444;2023-07-13T01:41:38;8.57;;;4.50;;
65461;SDS011;53236;43.666;18.444;2023-07-13T01:44:03;38.37;;;4.90;;
65461;SDS011;53236;43.666;18.444;2023-07-13T01:46:29;9.47;;;4.80;;
65461;SDS011;53236;43.666;18.444;2023-07-13T01:48:55;8.37;;;4.30;;
65461;SDS011;53236;43.666;18.444;2023-07-13T01:51:21;8.73;;;4.30;;
65461;SDS011;53236;43.666;18.444;2023-07-13T01:53:46;5.70;;;4.30;;
65461;SDS011;53236;43.666;18.444;2023-07-13T01:56:12;7.83;;;4.73;;
65461;SDS011;53236;43.666;18.444;2023-07-13T01:58:38;8.67;;;4.53;;
65461;SDS011;53236;43.666;18.444;2023-07-13T02:01:04;9.80;;;4.80;;
65461;SDS011;53236;43.666;18.444;2023-07-13T02:03:29;7.43;;;4.30;;
65461;SDS011;53236;43.666;18.444;2023-07-13T02:05:55;10.13;;;4.70;;
65461;SDS011;53236;43.666;18.444;2023-07-13T02:08:21;8.60;;;4.77;;
65461;SDS011;53236;43.666;18.444;2023-07-13T02:10:47;7.83;;;4.47;;
65461;SDS011;53236;43.666;18.444;2023-07-13T02:13:13;8.00;;;4.40;;
65461;SDS011;53236;43.666;18.444;2023-07-13T02:15:39;7.83;;;4.23;;
65461;SDS011;53236;43.666;18.444;2023-07-13T02:18:07;8.17;;;4.67;;
65461;SDS011;53236;43.666;18.444;2023-07-13T02:20:33;11.87;;;5.13;;
65461;SDS011;53236;43.666;18.444;2023-07-13T02:22:59;7.47;;;4.77;;
65461;SDS011;53236;43.666;18.444;2023-07-13T02:25:25;10.43;;;4.80;;
65461;SDS011;53236;43.666;18.444;2023-07-13T02:27:52;8.60;;;5.00;;
65461;SDS011;53236;43.666;18.444;2023-07-13T02:30:18;7.90;;;5.10;;
65461;SDS011;53236;43.666;18.444;2023-07-13T02:32:43;9.63;;;4.50;;
65461;SDS011;53236;43.666;18.444;2023-07-13T02:35:09;9.33;;;5.30;;
65461;SDS011;53236;43.666;18.444;2023-07-13T02:37:35;9.17;;;4.90;;
65461;SDS011;53236;43.666;18.444;2023-07-13T02:40:01;8.33;;;5.10;;
65461;SDS011;53236;43.666;18.444;2023-07-13T02:42:33;12.07;;;5.73;;
65461;SDS011;53236;43.666;18.444;2023-07-13T02:44:59;9.90;;;4.77;;
65461;SDS011;53236;43.666;18.444;2023-07-13T02:47:25;7.93;;;4.90;;
65461;SDS011;53236;43.666;18.444;2023-07-13T02:49:51;9.00;;;5.03;;
65461;SDS011;53236;43.666;18.444;2023-07-13T02:52:17;11.40;;;5.53;;
65461;SDS011;53236;43.666;18.444;2023-07-13T02:54:43;6.90;;;5.07;;
65461;SDS011;53236;43.666;18.444;2023-07-13T02:57:09;8.60;;;5.00;;
65461;SDS011;53236;43.666;18.444;2023-07-13T02:59:35;7.07;;;4.80;;
65461;SDS011;53236;43.666;18.444;2023-07-13T03:02:02;10.93;;;5.10;;
65461;SDS011;53236;43.666;18.444;2023-07-13T03:04:28;12.73;;;5.40;;
65461;SDS011;53236;43.666;18.444;2023-07-13T03:06:54;10.30;;;5.10;;
65461;SDS011;53236;43.666;18.444;2023-07-13T03:09:23;10.30;;;5.50;;
65461;SDS011;53236;43.666;18.444;2023-07-13T03:11:49;9.03;;;5.00;;
65461;SDS011;53236;43.666;18.444;2023-07-13T03:14:17;9.43;;;5.43;;
65461;SDS011;53236;43.666;18.444;2023-07-13T03:16:42;7.50;;;5.13;;
65461;SDS011;53236;43.666;18.444;2023-07-13T03:19:08;9.47;;;5.60;;
65461;SDS011;53236;43.666;18.444;2023-07-13T03:21:34;10.60;;;5.80;;
65461;SDS011;53236;43.666;18.444;2023-07-13T03:23:59;10.23;;;5.30;;
65461;SDS011;53236;43.666;18.444;2023-07-13T03:26:25;8.23;;;4.80;;
65461;SDS011;53236;43.666;18.444;2023-07-13T03:28:51;8.90;;;5.90;;
65461;SDS011;53236;43.666;18.444;2023-07-13T03:31:19;10.53;;;5.30;;
65461;SDS011;53236;43.666;18.444;2023-07-13T03:33:46;7.77;;;5.33;;
65461;SDS011;53236;43.666;18.444;2023-07-13T03:36:14;10.97;;;5.67;;
65461;SDS011;53236;43.666;18.444;2023-07-13T03:38:45;12.43;;;5.97;;
65461;SDS011;53236;43.666;18.444;2023-07-13T03:41:12;7.97;;;5.20;;
65461;SDS011;53236;43.666;18.444;2023-07-13T03:43:37;12.30;;;5.77;;
65461;SDS011;53236;43.666;18.444;2023-07-13T03:46:03;11.27;;;5.83;;
65461;SDS011;53236;43.666;18.444;2023-07-13T03:48:30;11.60;;;6.83;;
65461;SDS011;53236;43.666;18.444;2023-07-13T03:50:56;11.60;;;5.93;;
65461;SDS011;53236;43.666;18.444;2023-07-13T03:53:22;11.70;;;5.53;;
65461;SDS011;53236;43.666;18.444;2023-07-13T03:55:48;12.13;;;6.10;;
65461;SDS011;53236;43.666;18.444;2023-07-13T03:58:24;11.20;;;5.07;;
65461;SDS011;53236;43.666;18.444;2023-07-13T04:00:56;10.37;;;5.73;;
65461;SDS011;53236;43.666;18.444;2023-07-13T04:03:23;11.87;;;5.70;;
65461;SDS011;53236;43.666;18.444;2023-07-13T04:05:49;12.55;;;5.25;;
65461;SDS011;53236;43.666;18.444;2023-07-13T04:08:15;16.10;;;6.27;;
65461;SDS011;53236;43.666;18.444;2023-07-13T04:10:41;5.83;;;4.70;;
65461;SDS011;53236;43.666;18.444;2023-07-13T04:13:07;7.78;;;5.05;;
65461;SDS011;53236;43.666;18.444;2023-07-13T04:15:33;12.23;;;5.53;;
65461;SDS011;53236;43.666;18.444;2023-07-13T04:17:59;8.60;;;5.25;;
65461;SDS011;53236;43.666;18.444;2023-07-13T04:20:25;8.13;;;5.40;;
65461;SDS011;53236;43.666;18.444;2023-07-13T04:22:51;12.77;;;5.22;;
65461;SDS011;53236;43.666;18.444;2023-07-13T04:25:18;9.98;;;4.95;;
65461;SDS011;53236;43.666;18.444;2023-07-13T04:27:46;10.80;;;4.93;;
65461;SDS011;53236;43.666;18.444;2023-07-13T04:30:12;9.20;;;5.15;;
65461;SDS011;53236;43.666;18.444;2023-07-13T04:32:38;11.05;;;5.10;;
65461;SDS011;53236;43.666;18.444;2023-07-13T04:35:04;7.82;;;4.70;;
65461;SDS011;53236;43.666;18.444;2023-07-13T04:37:30;8.82;;;4.97;;
65461;SDS011;53236;43.666;18.444;2023-07-13T04:39:55;12.27;;;5.10;;
65461;SDS011;53236;43.666;18.444;2023-07-13T04:42:22;10.20;;;5.05;;
65461;SDS011;53236;43.666;18.444;2023-07-13T04:44:51;6.93;;;4.80;;
65461;SDS011;53236;43.666;18.444;2023-07-13T04:47:17;11.20;;;5.82;;
65461;SDS011;53236;43.666;18.444;2023-07-13T04:49:44;10.02;;;5.15;;
65461;SDS011;53236;43.666;18.444;2023-07-13T04:52:10;10.90;;;4.65;;
65461;SDS011;53236;43.666;18.444;2023-07-13T04:54:36;8.32;;;4.95;;
65461;SDS011;53236;43.666;18.444;2023-07-13T04:57:03;15.63;;;5.25;;
65461;SDS011;53236;43.666;18.444;2023-07-13T04:59:31;8.00;;;5.28;;
65461;SDS011;53236;43.666;18.444;2023-07-13T05:01:57;8.10;;;4.85;;
65461;SDS011;53236;43.666;18.444;2023-07-13T05:04:23;10.10;;;4.47;;
65461;SDS011;53236;43.666;18.444;2023-07-13T05:06:49;10.80;;;4.97;;
65461;SDS011;53236;43.666;18.444;2023-07-13T05:09:15;7.72;;;4.70;;
65461;SDS011;53236;43.666;18.444;2023-07-13T05:11:41;7.72;;;4.38;;
65461;SDS011;53236;43.666;18.444;2023-07-13T05:14:08;9.15;;;4.93;;
65461;SDS011;53236;43.666;18.444;2023-07-13T05:16:34;9.70;;;4.95;;
65461;SDS011;53236;43.666;18.444;2023-07-13T05:19:00;7.80;;;5.05;;
65461;SDS011;53236;43.666;18.444;2023-07-13T05:21:27;8.77;;;4.22;;
65461;SDS011;53236;43.666;18.444;2023-07-13T05:23:52;6.28;;;3.85;;
65461;SDS011;53236;43.666;18.444;2023-07-13T05:26:18;6.63;;;3.97;;
65461;SDS011;53236;43.666;18.444;2023-07-13T05:28:45;8.95;;;4.35;;
65461;SDS011;53236;43.666;18.444;2023-07-13T05:31:11;6.32;;;4.43;;
65461;SDS011;53236;43.666;18.444;2023-07-13T05:33:37;6.55;;;4.20;;
65461;SDS011;53236;43.666;18.444;2023-07-13T05:36:03;7.15;;;4.28;;
65461;SDS011;53236;43.666;18.444;2023-07-13T05:38:29;5.63;;;3.80;;
65461;SDS011;53236;43.666;18.444;2023-07-13T05:40:55;7.25;;;4.60;;
65461;SDS011;53236;43.666;18.444;2023-07-13T05:43:23;7.20;;;4.30;;
65461;SDS011;53236;43.666;18.444;2023-07-13T05:45:49;6.28;;;3.97;;
65461;SDS011;53236;43.666;18.444;2023-07-13T05:48:18;12.20;;;4.32;;
65461;SDS011;53236;43.666;18.444;2023-07-13T05:50:44;8.75;;;4.00;;
65461;SDS011;53236;43.666;18.444;2023-07-13T05:53:09;6.10;;;3.83;;
65461;SDS011;53236;43.666;18.444;2023-07-13T05:55:40;5.75;;;3.67;;
65461;SDS011;53236;43.666;18.444;2023-07-13T05:58:07;9.13;;;4.18;;
65461;SDS011;53236;43.666;18.444;2023-07-13T06:00:32;10.93;;;4.65;;
65461;SDS011;53236;43.666;18.444;2023-07-13T06:02:58;6.97;;;4.10;;
65461;SDS011;53236;43.666;18.444;2023-07-13T06:05:24;6.85;;;3.53;;
65461;SDS011;53236;43.666;18.444;2023-07-13T06:07:50;5.72;;;4.10;;
65461;SDS011;53236;43.666;18.444;2023-07-13T06:10:16;7.07;;;4.43;;
65461;SDS011;53236;43.666;18.444;2023-07-13T06:12:41;7.22;;;3.83;;
65461;SDS011;53236;43.666;18.444;2023-07-13T06:15:08;7.82;;;5.07;;
65461;SDS011;53236;43.666;18.444;2023-07-13T06:17:34;7.35;;;4.85;;
65461;SDS011;53236;43.666;18.444;2023-07-13T06:19:59;13.40;;;8.23;;
65461;SDS011;53236;43.666;18.444;2023-07-13T06:22:25;13.23;;;7.90;;
65461;SDS011;53236;43.666;18.444;2023-07-13T06:24:51;13.60;;;8.43;;
65461;SDS011;53236;43.666;18.444;2023-07-13T06:27:17;13.95;;;7.15;;
65461;SDS011;53236;43.666;18.444;2023-07-13T06:29:43;12.70;;;7.00;;
65461;SDS011;53236;43.666;18.444;2023-07-13T06:32:10;11.98;;;6.63;;
65461;SDS011;53236;43.666;18.444;2023-07-13T06:34:36;10.98;;;5.90;;
65461;SDS011;53236;43.666;18.444;2023-07-13T06:37:01;8.77;;;4.93;;
65461;SDS011;53236;43.666;18.444;2023-07-13T06:39:27;13.10;;;6.50;;
65461;SDS011;53236;43.666;18.444;2023-07-13T06:41:53;9.20;;;5.70;;
65461;SDS011;53236;43.666;18.444;2023-07-13T06:44:19;8.90;;;5.55;;
65461;SDS011;53236;43.666;18.444;2023-07-13T06:46:44;10.60;;;5.13;;
65461;SDS011;53236;43.666;18.444;2023-07-13T06:49:10;12.23;;;5.05;;
65461;SDS011;53236;43.666;18.444;2023-07-13T06:51:36;8.70;;;5.25;;
65461;SDS011;53236;43.666;18.444;2023-07-13T06:54:02;9.07;;;4.95;;
65461;SDS011;53236;43.666;18.444;2023-07-13T06:56:28;7.78;;;4.10;;
65461;SDS011;53236;43.666;18.444;2023-07-13T06:58:54;9.90;;;5.10;;
65461;SDS011;53236;43.666;18.444;2023-07-13T07:01:20;9.48;;;5.28;;
65461;SDS011;53236;43.666;18.444;2023-07-13T07:03:45;7.95;;;5.47;;
65461;SDS011;53236;43.666;18.444;2023-07-13T07:06:13;9.10;;;4.55;;
65461;SDS011;53236;43.666;18.444;2023-07-13T07:08:42;7.05;;;4.15;;
65461;SDS011;53236;43.666;18.444;2023-07-13T07:11:09;7.20;;;4.68;;
65461;SDS011;53236;43.666;18.444;2023-07-13T07:13:39;7.90;;;4.15;;
65461;SDS011;53236;43.666;18.444;2023-07-13T07:16:05;5.38;;;2.90;;
65461;SDS011;53236;43.666;18.444;2023-07-13T07:18:31;4.47;;;2.75;;
65461;SDS011;53236;43.666;18.444;2023-07-13T07:20:57;4.95;;;2.83;;
65461;SDS011;53236;43.666;18.444;2023-07-13T07:23:23;4.68;;;2.78;;
65461;SDS011;53236;43.666;18.444;2023-07-13T07:25:49;4.97;;;2.80;;
65461;SDS011;53236;43.666;18.444;2023-07-13T07:28:16;6.18;;;3.17;;
65461;SDS011;53236;43.666;18.444;2023-07-13T07:30:45;6.57;;;2.80;;
65461;SDS011;53236;43.666;18.444;2023-07-13T07:33:12;6.07;;;3.20;;
65461;SDS011;53236;43.666;18.444;2023-07-13T07:35:38;7.90;;;2.88;;
65461;SDS011;53236;43.666;18.444;2023-07-13T07:38:04;8.18;;;3.30;;
65461;SDS011;53236;43.666;18.444;2023-07-13T07:40:30;6.10;;;3.20;;
65461;SDS011;53236;43.666;18.444;2023-07-13T07:42:56;9.18;;;3.50;;
65461;SDS011;53236;43.666;18.444;2023-07-13T07:45:22;8.93;;;3.30;;
65461;SDS011;53236;43.666;18.444;2023-07-13T07:47:48;5.28;;;2.80;;
65461;SDS011;53236;43.666;18.444;2023-07-13T07:50:14;7.32;;;3.25;;
65461;SDS011;53236;43.666;18.444;2023-07-13T07:52:40;10.20;;;3.00;;
65461;SDS011;53236;43.666;18.444;2023-07-13T07:55:06;7.47;;;3.15;;
65461;SDS011;53236;43.666;18.444;2023-07-13T07:57:33;5.05;;;3.35;;
65461;SDS011;53236;43.666;18.444;2023-07-13T07:59:59;7.15;;;3.15;;
65461;SDS011;53236;43.666;18.444;2023-07-13T08:02:25;11.48;;;3.53;;
65461;SDS011;53236;43.666;18.444;2023-07-13T08:04:51;7.90;;;3.10;;
65461;SDS011;53236;43.666;18.444;2023-07-13T08:07:17;10.93;;;3.08;;
65461;SDS011;53236;43.666;18.444;2023-07-13T08:09:43;6.53;;;3.10;;
65461;SDS011;53236;43.666;18.444;2023-07-13T08:12:09;8.02;;;3.58;;
65461;SDS011;53236;43.666;18.444;2023-07-13T08:14:35;6.43;;;3.70;;
65461;SDS011;53236;43.666;18.444;2023-07-13T08:17:00;10.43;;;3.42;;
65461;SDS011;53236;43.666;18.444;2023-07-13T08:19:26;5.47;;;3.28;;
65461;SDS011;53236;43.666;18.444;2023-07-13T08:21:52;8.43;;;3.28;;
65461;SDS011;53236;43.666;18.444;2023-07-13T08:24:18;6.15;;;2.90;;
65461;SDS011;53236;43.666;18.444;2023-07-13T08:26:47;7.18;;;3.60;;
65461;SDS011;53236;43.666;18.444;2023-07-13T08:29:12;6.57;;;3.10;;
65461;SDS011;53236;43.666;18.444;2023-07-13T08:31:38;8.93;;;3.47;;
65461;SDS011;53236;43.666;18.444;2023-07-13T08:34:04;7.40;;;3.60;;
65461;SDS011;53236;43.666;18.444;2023-07-13T08:36:30;8.95;;;3.03;;
65461;SDS011;53236;43.666;18.444;2023-07-13T08:38:55;11.10;;;3.60;;
65461;SDS011;53236;43.666;18.444;2023-07-13T08:41:21;7.63;;;3.10;;
65461;SDS011;53236;43.666;18.444;2023-07-13T08:43:49;9.00;;;3.60;;
65461;SDS011;53236;43.666;18.444;2023-07-13T08:46:29;5.22;;;3.38;;
65461;SDS011;53236;43.666;18.444;2023-07-13T08:49:01;9.60;;;4.13;;
65461;SDS011;53236;43.666;18.444;2023-07-13T08:54:03;7.13;;;3.65;;
65461;SDS011;53236;43.666;18.444;2023-07-13T08:56:36;7.82;;;3.42;;
65461;SDS011;53236;43.666;18.444;2023-07-13T08:59:12;7.30;;;3.35;;
65461;SDS011;53236;43.666;18.444;2023-07-13T09:04:26;8.98;;;3.67;;
65461;SDS011;53236;43.666;18.444;2023-07-13T09:09:58;6.45;;;3.50;;
65461;SDS011;53236;43.666;18.444;2023-07-13T09:12:51;8.38;;;3.63;;
65461;SDS011;53236;43.666;18.444;2023-07-13T09:15:39;7.35;;;3.70;;
65461;SDS011;53236;43.666;18.444;2023-07-13T09:18:51;8.43;;;4.18;;
65461;SDS011;53236;43.666;18.444;2023-07-13T09:21:03;10.93;;;4.07;;
65461;SDS011;53236;43.666;18.444;2023-07-13T09:23:32;16.25;;;4.35;;
65461;SDS011;53236;43.666;18.444;2023-07-13T09:26:22;9.63;;;4.22;;
65461;SDS011;53236;43.666;18.444;2023-07-13T09:28:55;7.00;;;4.32;;
65461;SDS011;53236;43.666;18.444;2023-07-13T09:33:50;8.13;;;4.20;;
65461;SDS011;53236;43.666;18.444;2023-07-13T09:38:45;8.65;;;3.70;;
65461;SDS011;53236;43.666;18.444;2023-07-13T09:46:36;10.77;;;4.60;;
65461;SDS011;53236;43.666;18.444;2023-07-13T09:49:03;6.80;;;4.18;;
65461;SDS011;53236;43.666;18.444;2023-07-13T09:51:29;8.77;;;4.68;;
65461;SDS011;53236;43.666;18.444;2023-07-13T09:53:55;8.70;;;4.10;;
65461;SDS011;53236;43.666;18.444;2023-07-13T09:56:23;6.55;;;4.25;;
65461;SDS011;53236;43.666;18.444;2023-07-13T09:58:52;6.85;;;4.47;;
65461;SDS011;53236;43.666;18.444;2023-07-13T10:01:39;17.33;;;4.72;;
65461;SDS011;53236;43.666;18.444;2023-07-13T10:04:11;10.45;;;4.53;;
65461;SDS011;53236;43.666;18.444;2023-07-13T10:06:38;8.00;;;4.72;;
65461;SDS011;53236;43.666;18.444;2023-07-13T10:09:08;7.57;;;4.57;;
65461;SDS011;53236;43.666;18.444;2023-07-13T10:11:35;13.25;;;5.00;;
65461;SDS011;53236;43.666;18.444;2023-07-13T10:14:15;7.45;;;4.72;;
65461;SDS011;53236;43.666;18.444;2023-07-13T10:16:46;8.88;;;4.78;;
65461;SDS011;53236;43.666;18.444;2023-07-13T10:21:59;10.38;;;5.22;;
65461;SDS011;53236;43.666;18.444;2023-07-13T10:24:27;19.30;;;5.85;;
65461;SDS011;53236;43.666;18.444;2023-07-13T10:27:00;11.40;;;5.10;;
65461;SDS011;53236;43.666;18.444;2023-07-13T10:29:29;11.27;;;4.97;;
65461;SDS011;53236;43.666;18.444;2023-07-13T10:32:01;9.50;;;4.72;;
65461;SDS011;53236;43.666;18.444;2023-07-13T10:34:32;9.75;;;5.32;;
65461;SDS011;53236;43.666;18.444;2023-07-13T10:36:58;9.20;;;5.13;;
65461;SDS011;53236;43.666;18.444;2023-07-13T10:39:27;10.60;;;5.55;;
65461;SDS011;53236;43.666;18.444;2023-07-13T10:42:01;10.48;;;4.95;;
65461;SDS011;53236;43.666;18.444;2023-07-13T10:44:32;14.43;;;5.18;;
65461;SDS011;53236;43.666;18.444;2023-07-13T10:47:00;9.55;;;4.90;;
65461;SDS011;53236;43.666;18.444;2023-07-13T10:49:28;10.02;;;4.60;;
65461;SDS011;53236;43.666;18.444;2023-07-13T10:51:56;9.05;;;5.53;;
65461;SDS011;53236;43.666;18.444;2023-07-13T10:54:26;8.95;;;5.57;;
65461;SDS011;53236;43.666;18.444;2023-07-13T10:59:33;9.10;;;5.22;;
65461;SDS011;53236;43.666;18.444;2023-07-13T11:04:29;14.48;;;5.28;;
65461;SDS011;53236;43.666;18.444;2023-07-13T11:07:23;11.52;;;6.30;;
65461;SDS011;53236;43.666;18.444;2023-07-13T11:09:56;16.67;;;4.95;;
65461;SDS011;53236;43.666;18.444;2023-07-13T11:17:33;10.35;;;5.07;;
65461;SDS011;53236;43.666;18.444;2023-07-13T11:22:47;12.70;;;5.20;;
65461;SDS011;53236;43.666;18.444;2023-07-13T11:25:27;9.02;;;4.75;;
65461;SDS011;53236;43.666;18.444;2023-07-13T11:30:37;11.05;;;5.88;;
65461;SDS011;53236;43.666;18.444;2023-07-13T11:38:17;11.73;;;5.78;;
65461;SDS011;53236;43.666;18.444;2023-07-13T11:40:47;10.10;;;5.20;;
65461;SDS011;53236;43.666;18.444;2023-07-13T11:43:16;9.15;;;5.40;;
65461;SDS011;53236;43.666;18.444;2023-07-13T11:45:43;10.40;;;5.72;;
65461;SDS011;53236;43.666;18.444;2023-07-13T11:48:23;16.23;;;6.13;;
65461;SDS011;53236;43.666;18.444;2023-07-13T11:51:00;10.43;;;5.28;;
65461;SDS011;53236;43.666;18.444;2023-07-13T11:53:31;8.95;;;5.00;;
65461;SDS011;53236;43.666;18.444;2023-07-13T11:56:03;12.65;;;5.75;;
65461;SDS011;53236;43.666;18.444;2023-07-13T11:58:29;9.45;;;5.72;;
65461;SDS011;53236;43.666;18.444;2023-07-13T12:00:55;12.55;;;6.03;;
65461;SDS011;53236;43.666;18.444;2023-07-13T12:03:25;11.32;;;6.10;;
65461;SDS011;53236;43.666;18.444;2023-07-13T12:06:19;10.48;;;6.28;;
65461;SDS011;53236;43.666;18.444;2023-07-13T12:08:46;11.93;;;6.30;;
65461;SDS011;53236;43.666;18.444;2023-07-13T12:11:16;14.73;;;5.90;;
65461;SDS011;53236;43.666;18.444;2023-07-13T12:13:44;12.73;;;5.78;;
65461;SDS011;53236;43.666;18.444;2023-07-13T12:16:31;11.38;;;6.05;;
65461;SDS011;53236;43.666;18.444;2023-07-13T12:18:58;11.45;;;6.18;;
65461;SDS011;53236;43.666;18.444;2023-07-13T12:23:58;16.00;;;6.30;;
65461;SDS011;53236;43.666;18.444;2023-07-13T12:26:27;10.43;;;5.88;;
65461;SDS011;53236;43.666;18.444;2023-07-13T12:28:55;8.90;;;6.15;;
65461;SDS011;53236;43.666;18.444;2023-07-13T12:34:01;12.45;;;6.82;;
65461;SDS011;53236;43.666;18.444;2023-07-13T12:36:47;13.25;;;6.28;;
65461;SDS011;53236;43.666;18.444;2023-07-13T12:41:48;14.88;;;6.70;;
65461;SDS011;53236;43.666;18.444;2023-07-13T12:44:16;13.43;;;6.53;;
65461;SDS011;53236;43.666;18.444;2023-07-13T12:46:55;9.90;;;5.80;;
65461;SDS011;53236;43.666;18.444;2023-07-13T12:49:39;10.82;;;6.75;;
65461;SDS011;53236;43.666;18.444;2023-07-13T12:52:14;12.52;;;6.65;;
65461;SDS011;53236;43.666;18.444;2023-07-13T12:54:51;15.00;;;6.95;;
65461;SDS011;53236;43.666;18.444;2023-07-13T12:57:18;9.90;;;5.85;;
65461;SDS011;53236;43.666;18.444;2023-07-13T12:59:44;9.32;;;6.10;;
65461;SDS011;53236;43.666;18.444;2023-07-13T13:02:21;11.45;;;7.05;;
65461;SDS011;53236;43.666;18.444;2023-07-13T13:04:55;12.82;;;6.47;;
65461;SDS011;53236;43.666;18.444;2023-07-13T13:07:21;11.15;;;6.28;;
65461;SDS011;53236;43.666;18.444;2023-07-13T13:09:48;13.82;;;6.80;;
65461;SDS011;53236;43.666;18.444;2023-07-13T13:12:14;12.38;;;7.05;;
65461;SDS011;53236;43.666;18.444;2023-07-13T13:14:42;9.70;;;6.95;;
65461;SDS011;53236;43.666;18.444;2023-07-13T13:17:21;11.80;;;6.35;;
65461;SDS011;53236;43.666;18.444;2023-07-13T13:19:52;10.68;;;6.55;;
65461;SDS011;53236;43.666;18.444;2023-07-13T13:22:19;12.43;;;6.95;;
65461;SDS011;53236;43.666;18.444;2023-07-13T13:24:46;12.75;;;6.63;;
65461;SDS011;53236;43.666;18.444;2023-07-13T13:41:31;13.50;;;6.47;;
65461;SDS011;53236;43.666;18.444;2023-07-13T13:43:57;14.18;;;7.03;;
65461;SDS011;53236;43.666;18.444;2023-07-13T13:46:24;16.10;;;6.95;;
65461;SDS011;53236;43.666;18.444;2023-07-13T13:48:50;11.77;;;7.10;;
65461;SDS011;53236;43.666;18.444;2023-07-13T13:51:20;13.20;;;6.55;;
65461;SDS011;53236;43.666;18.444;2023-07-13T13:53:48;18.02;;;6.85;;
65461;SDS011;53236;43.666;18.444;2023-07-13T13:56:14;14.70;;;7.00;;
65461;SDS011;53236;43.666;18.444;2023-07-13T13:58:42;14.50;;;6.65;;
65461;SDS011;53236;43.666;18.444;2023-07-13T14:01:12;11.85;;;6.35;;
65461;SDS011;53236;43.666;18.444;2023-07-13T14:03:45;13.50;;;6.53;;
65461;SDS011;53236;43.666;18.444;2023-07-13T14:06:13;11.48;;;6.20;;
65461;SDS011;53236;43.666;18.444;2023-07-13T14:08:40;16.77;;;7.18;;
65461;SDS011;53236;43.666;18.444;2023-07-13T14:11:07;15.38;;;6.97;;
65461;SDS011;53236;43.666;18.444;2023-07-13T14:13:41;16.00;;;6.82;;
65461;SDS011;53236;43.666;18.444;2023-07-13T14:16:19;12.52;;;6.22;;
65461;SDS011;53236;43.666;18.444;2023-07-13T14:18:47;14.90;;;7.22;;
65461;SDS011;53236;43.666;18.444;2023-07-13T14:23:41;12.65;;;7.63;;
65461;SDS011;53236;43.666;18.444;2023-07-13T14:26:12;18.88;;;7.20;;
65461;SDS011;53236;43.666;18.444;2023-07-13T14:28:43;11.52;;;6.95;;
65461;SDS011;53236;43.666;18.444;2023-07-13T14:31:13;15.88;;;7.43;;
65461;SDS011;53236;43.666;18.444;2023-07-13T14:33:41;11.88;;;6.85;;
65461;SDS011;53236;43.666;18.444;2023-07-13T14:36:21;12.88;;;6.70;;
65461;SDS011;53236;43.666;18.444;2023-07-13T14:38:58;13.65;;;6.70;;
65461;SDS011;53236;43.666;18.444;2023-07-13T14:41:25;9.57;;;5.68;;
65461;SDS011;53236;43.666;18.444;2023-07-13T14:43:52;13.90;;;6.30;;
65461;SDS011;53236;43.666;18.444;2023-07-13T14:46:22;13.85;;;6.40;;
65461;SDS011;53236;43.666;18.444;2023-07-13T14:49:03;11.60;;;6.13;;
65461;SDS011;53236;43.666;18.444;2023-07-13T14:51:31;12.30;;;6.47;;
65461;SDS011;53236;43.666;18.444;2023-07-13T14:54:02;12.02;;;6.88;;
65461;SDS011;53236;43.666;18.444;2023-07-13T14:56:30;11.30;;;6.82;;
65461;SDS011;53236;43.666;18.444;2023-07-13T14:58:55;12.85;;;7.20;;
65461;SDS011;53236;43.666;18.444;2023-07-13T15:01:22;10.77;;;6.50;;
65461;SDS011;53236;43.666;18.444;2023-07-13T15:03:49;11.20;;;6.75;;
65461;SDS011;53236;43.666;18.444;2023-07-13T15:06:16;11.32;;;6.47;;
65461;SDS011;53236;43.666;18.444;2023-07-13T15:08:44;11.23;;;6.75;;
65461;SDS011;53236;43.666;18.444;2023-07-13T15:11:11;13.73;;;6.13;;
65461;SDS011;53236;43.666;18.444;2023-07-13T15:13:37;10.15;;;6.20;;
65461;SDS011;53236;43.666;18.444;2023-07-13T15:16:16;10.43;;;5.65;;
65461;SDS011;53236;43.666;18.444;2023-07-13T15:18:49;10.00;;;5.50;;
65461;SDS011;53236;43.666;18.444;2023-07-13T15:21:20;10.63;;;6.32;;
65461;SDS011;53236;43.666;18.444;2023-07-13T15:23:47;13.20;;;5.90;;
65461;SDS011;53236;43.666;18.444;2023-07-13T15:26:14;7.72;;;5.63;;
65461;SDS011;53236;43.666;18.444;2023-07-13T15:28:42;9.43;;;5.45;;
65461;SDS011;53236;43.666;18.444;2023-07-13T15:31:15;9.15;;;5.57;;
65461;SDS011;53236;43.666;18.444;2023-07-13T15:33:54;11.48;;;5.95;;
65461;SDS011;53236;43.666;18.444;2023-07-13T15:36:23;10.05;;;6.25;;
65461;SDS011;53236;43.666;18.444;2023-07-13T15:38:53;8.73;;;5.57;;
65461;SDS011;53236;43.666;18.444;2023-07-13T15:41:26;12.85;;;6.05;;